createdAt,value
2022-08-27T00:05:44.551Z,1.90
2022-08-27T00:08:18.647Z,2.20
2022-08-27T00:10:46.180Z,1.73
2022-08-27T00:13:15.776Z,2.45
2022-08-27T00:15:43.712Z,1.95
2022-08-27T00:18:11.389Z,2.30
2022-08-27T00:20:40.338Z,2.13
2022-08-27T00:26:54.878Z,1.67
2022-08-27T00:29:22.393Z,1.90
2022-08-27T00:31:53.490Z,1.95
2022-08-27T00:34:23.839Z,2.13
2022-08-27T00:36:53.030Z,2.00
2022-08-27T00:39:21.120Z,1.85
2022-08-27T00:41:48.622Z,2.20
2022-08-27T00:47:05.618Z,1.90
2022-08-27T00:49:42.182Z,1.33
2022-08-27T00:52:19.664Z,1.67
2022-08-27T00:54:49.104Z,2.20
2022-08-27T00:57:19.804Z,2.03
2022-08-27T00:59:49.347Z,2.03
2022-08-27T01:02:19.844Z,2.45
2022-08-27T01:07:41.465Z,2.92
2022-08-27T01:10:19.669Z,1.92
2022-08-27T01:12:53.968Z,2.50
2022-08-27T01:15:23.646Z,1.73
2022-08-27T01:17:51.992Z,2.15
2022-08-27T01:20:34.820Z,2.90
2022-08-27T01:23:05.240Z,2.13
2022-08-27T01:31:51.425Z,2.35
2022-08-27T01:34:20.454Z,1.80
2022-08-27T01:36:49.735Z,2.30
2022-08-27T01:39:22.206Z,2.10
2022-08-27T01:41:52.449Z,2.05
2022-08-27T01:44:21.051Z,1.85
2022-08-27T01:46:50.327Z,2.00
2022-08-27T01:54:20.637Z,2.20
2022-08-27T01:56:49.928Z,2.25
2022-08-27T01:59:19.281Z,2.13
2022-08-27T02:01:51.457Z,1.70
2022-08-27T02:04:20.902Z,2.40
2022-08-27T02:06:50.140Z,1.92
2022-08-27T02:09:19.525Z,1.90
2022-08-27T02:11:49.206Z,1.67
2022-08-27T02:19:22.133Z,1.85
2022-08-27T02:21:50.805Z,1.73
2022-08-27T02:24:19.664Z,1.70
2022-08-27T02:26:48.735Z,1.80
2022-08-27T02:29:16.096Z,1.80
2022-08-27T02:31:43.647Z,2.08
2022-08-27T02:34:11.072Z,1.73
2022-08-27T02:39:21.574Z,2.00
2022-08-27T02:41:50.725Z,2.05
2022-08-27T02:44:20.086Z,2.10
2022-08-27T02:46:50.055Z,2.35
2022-08-27T02:49:21.386Z,2.65
2022-08-27T02:51:56.232Z,3.38
2022-08-27T02:54:25.161Z,3.35
2022-08-27T02:59:32.763Z,3.20
2022-08-27T03:02:01.245Z,3.40
2022-08-27T03:04:30.516Z,4.28
2022-08-27T03:06:59.822Z,3.53
2022-08-27T03:09:28.319Z,3.38
2022-08-27T03:11:56.661Z,3.22
2022-08-27T03:14:26.117Z,2.78
2022-08-27T03:19:50.570Z,3.20
2022-08-27T03:22:19.403Z,2.72
2022-08-27T03:24:46.898Z,2.42
2022-08-27T03:27:16.266Z,2.65
2022-08-27T03:29:43.610Z,2.60
2022-08-27T03:32:11.139Z,2.50
2022-08-27T03:34:44.867Z,2.63
2022-08-27T03:37:12.909Z,2.63
2022-08-27T03:44:51.892Z,2.40
2022-08-27T03:47:23.680Z,2.53
2022-08-27T03:49:51.221Z,2.55
2022-08-27T03:52:20.803Z,2.40
2022-08-27T03:54:50.186Z,2.85
2022-08-27T03:57:19.386Z,2.55
2022-08-27T03:59:46.852Z,2.65
2022-08-27T04:02:16.264Z,2.67
2022-08-27T04:09:51.437Z,3.60
2022-08-27T04:12:21.278Z,4.40
2022-08-27T04:14:50.698Z,4.00
2022-08-27T04:17:20.069Z,4.50
2022-08-27T04:19:49.314Z,4.32
2022-08-27T04:22:16.672Z,4.30
2022-08-27T04:24:45.488Z,4.25
2022-08-27T04:35:02.890Z,4.13
2022-08-27T04:37:33.040Z,4.38
2022-08-27T04:40:01.094Z,3.97
2022-08-27T04:42:31.124Z,3.75
2022-08-27T04:45:00.385Z,3.20
2022-08-27T04:47:29.183Z,2.80
2022-08-27T04:49:56.742Z,2.63
2022-08-27T04:52:27.022Z,2.78
2022-08-27T05:00:01.094Z,2.40
2022-08-27T05:02:30.445Z,2.53
2022-08-27T05:04:59.855Z,2.55
2022-08-27T05:07:29.039Z,2.42
2022-08-27T05:09:56.497Z,3.03
2022-08-27T05:12:24.046Z,2.90
2022-08-27T05:14:51.415Z,2.58
2022-08-27T05:22:12.765Z,2.75
2022-08-27T05:24:41.129Z,2.40
2022-08-27T05:27:13.082Z,2.65
2022-08-27T05:29:40.994Z,3.15
2022-08-27T05:32:10.626Z,2.42
2022-08-27T05:34:40.214Z,2.92
2022-08-27T05:37:11.238Z,2.97
2022-08-27T05:39:41.190Z,3.10
2022-08-27T05:47:21.179Z,3.58
2022-08-27T05:49:53.526Z,3.70
2022-08-27T05:52:21.853Z,3.65
2022-08-27T05:54:51.203Z,3.70
2022-08-27T05:57:20.591Z,3.63
2022-08-27T06:00:06.553Z,3.63
2022-08-27T06:07:59.560Z,3.78
2022-08-27T06:10:26.986Z,3.63
2022-08-27T06:12:56.996Z,3.90
2022-08-27T06:15:36.037Z,3.60
2022-08-27T06:18:05.162Z,3.30
2022-08-27T06:20:32.526Z,3.85
2022-08-27T06:23:01.119Z,3.65
2022-08-27T06:28:12.138Z,6.20
2022-08-27T06:30:41.205Z,4.72
2022-08-27T06:33:10.483Z,4.20
2022-08-27T06:35:40.020Z,4.93
2022-08-27T06:38:09.739Z,4.63
2022-08-27T06:40:41.976Z,4.13
2022-08-27T06:43:12.099Z,4.82
2022-08-27T06:52:24.267Z,7.22
2022-08-27T06:54:51.891Z,8.85
2022-08-27T06:57:21.214Z,5.50
2022-08-27T06:59:50.522Z,4.77
2022-08-27T07:02:20.505Z,5.15
2022-08-27T07:04:50.647Z,5.07
2022-08-27T07:12:41.710Z,4.82
2022-08-27T07:15:11.273Z,4.85
2022-08-27T07:17:40.993Z,4.32
2022-08-27T07:20:12.865Z,5.03
2022-08-27T07:22:42.522Z,4.30
2022-08-27T07:25:15.351Z,4.50
2022-08-27T07:27:42.918Z,4.55
2022-08-27T07:34:40.182Z,4.28
2022-08-27T07:37:09.544Z,4.70
2022-08-27T07:39:37.037Z,4.60
2022-08-27T07:42:24.287Z,4.65
2022-08-27T07:44:51.761Z,4.68
2022-08-27T07:47:21.239Z,4.32
2022-08-27T07:49:50.524Z,4.60
2022-08-27T07:56:09.782Z,4.38
2022-08-27T07:58:37.166Z,4.80
2022-08-27T08:01:10.240Z,4.55
2022-08-27T08:03:39.925Z,5.00
2022-08-27T08:06:12.256Z,4.80
2022-08-27T08:08:41.942Z,4.85
2022-08-27T08:11:14.172Z,4.78
2022-08-27T08:16:29.594Z,4.40
2022-08-27T08:19:00.586Z,4.40
2022-08-27T08:21:29.829Z,4.30
2022-08-27T08:23:57.334Z,4.90
2022-08-27T08:26:26.759Z,5.30
2022-08-27T08:28:54.281Z,4.25
2022-08-27T08:31:23.860Z,3.92
2022-08-27T08:36:33.121Z,4.00
2022-08-27T08:39:01.008Z,3.95
2022-08-27T08:41:37.419Z,4.13
2022-08-27T08:44:17.097Z,4.50
2022-08-27T08:46:50.478Z,4.53
2022-08-27T08:49:42.287Z,3.90
2022-08-27T08:52:30.609Z,4.20
2022-08-27T08:58:17.388Z,4.13
2022-08-27T09:00:56.615Z,4.00
2022-08-27T09:03:24.595Z,4.40
2022-08-27T09:06:02.122Z,4.28
2022-08-27T09:08:42.404Z,4.20
2022-08-27T09:11:21.657Z,4.25
2022-08-27T09:13:55.575Z,4.40
2022-08-27T09:21:07.517Z,4.28
2022-08-27T09:24:02.804Z,4.15
2022-08-27T09:26:41.353Z,4.05
2022-08-27T09:29:20.983Z,4.03
2022-08-27T09:32:12.378Z,3.90
2022-08-27T09:34:43.817Z,4.05
2022-08-27T09:37:34.412Z,3.78
2022-08-27T09:45:55.159Z,3.10
2022-08-27T09:48:31.038Z,3.17
2022-08-27T09:51:23.620Z,3.65
2022-08-27T09:54:01.942Z,3.50
2022-08-27T09:56:50.761Z,2.70
2022-08-27T09:59:30.479Z,2.90
2022-08-27T10:02:12.970Z,2.60
2022-08-27T10:12:55.204Z,2.85
2022-08-27T10:15:31.564Z,2.70
2022-08-27T10:18:21.108Z,2.58
2022-08-27T10:21:20.937Z,2.38
2022-08-27T10:24:13.829Z,2.13
2022-08-27T10:27:11.963Z,2.50
2022-08-27T10:38:44.879Z,1.98
2022-08-27T10:42:01.116Z,2.30
2022-08-27T10:44:54.947Z,2.50
2022-08-27T10:47:51.219Z,2.17
2022-08-27T10:50:50.881Z,2.20
2022-08-27T10:53:35.728Z,2.10
2022-08-27T11:04:32.833Z,2.15
2022-08-27T11:07:11.204Z,2.83
2022-08-27T11:10:06.041Z,2.33
2022-08-27T11:12:42.371Z,2.20
2022-08-27T11:15:23.217Z,2.60
2022-08-27T11:18:01.509Z,2.28
2022-08-27T11:20:42.591Z,2.13
2022-08-27T11:26:07.441Z,2.53
2022-08-27T11:28:54.934Z,2.10
2022-08-27T11:31:56.189Z,2.47
2022-08-27T11:34:31.229Z,2.40
2022-08-27T11:37:11.600Z,2.50
2022-08-27T11:39:57.392Z,2.33
2022-08-27T11:42:44.886Z,2.22
2022-08-27T11:50:55.048Z,2.55
2022-08-27T11:53:52.023Z,2.58
2022-08-27T11:56:31.026Z,2.38
2022-08-27T11:59:21.484Z,2.78
2022-08-27T12:04:32.203Z,2.50
2022-08-27T12:07:16.704Z,2.50
2022-08-27T12:14:15.033Z,2.60
2022-08-27T12:16:53.064Z,2.60
2022-08-27T12:19:57.809Z,2.38
2022-08-27T12:23:22.993Z,2.72
2022-08-27T12:26:13.043Z,2.58
2022-08-27T12:28:41.830Z,3.00
2022-08-27T12:33:54.586Z,3.35
2022-08-27T12:36:28.501Z,4.53
2022-08-27T12:39:03.638Z,3.38
2022-08-27T12:41:44.910Z,2.92
2022-08-27T12:44:22.979Z,2.70
2022-08-27T12:47:13.202Z,2.85
2022-08-27T12:50:13.114Z,2.70
2022-08-27T12:57:10.251Z,3.00
2022-08-27T13:00:00.727Z,3.72
2022-08-27T13:04:55.483Z,2.97
2022-08-27T13:07:33.106Z,2.90
2022-08-27T13:10:36.421Z,3.15
2022-08-27T13:13:06.127Z,3.20
2022-08-27T13:20:01.957Z,3.15
2022-08-27T13:22:43.369Z,2.70
2022-08-27T13:25:30.696Z,3.10
2022-08-27T13:28:12.399Z,3.25
2022-08-27T13:30:46.093Z,3.40
2022-08-27T13:33:21.549Z,3.47
2022-08-27T13:35:51.250Z,3.20
2022-08-27T13:41:47.940Z,3.28
2022-08-27T13:44:27.379Z,3.42
2022-08-27T13:47:03.405Z,3.63
2022-08-27T13:49:37.439Z,3.40
2022-08-27T13:52:26.960Z,4.05
2022-08-27T13:55:07.640Z,3.65
2022-08-27T13:57:49.915Z,3.97
2022-08-27T14:06:03.493Z,4.30
2022-08-27T14:08:35.889Z,4.10
2022-08-27T14:11:07.976Z,4.20
2022-08-27T14:13:44.868Z,4.68
2022-08-27T14:16:33.639Z,4.40
2022-08-27T14:19:36.493Z,3.25
2022-08-27T14:22:05.241Z,2.88
2022-08-27T14:29:02.428Z,3.65
2022-08-27T14:31:31.187Z,3.58
2022-08-27T14:34:00.654Z,3.58
2022-08-27T14:36:32.517Z,3.90
2022-08-27T14:39:05.576Z,3.38
2022-08-27T14:41:33.949Z,3.63
2022-08-27T14:44:02.311Z,4.13
2022-08-27T14:50:02.389Z,3.05
2022-08-27T14:52:30.314Z,3.65
2022-08-27T14:54:57.644Z,3.92
2022-08-27T14:57:25.155Z,4.30
2022-08-27T14:59:52.490Z,3.30
2022-08-27T15:02:23.660Z,4.05
2022-08-27T15:04:51.380Z,4.22
2022-08-27T15:10:02.326Z,5.50
2022-08-27T15:12:30.971Z,2.83
2022-08-27T15:14:58.687Z,3.90
2022-08-27T15:17:34.514Z,3.17
2022-08-27T15:20:10.097Z,2.90
2022-08-27T15:22:44.362Z,3.03
2022-08-27T15:25:12.644Z,2.72
2022-08-27T15:30:31.218Z,3.08
2022-08-27T15:33:02.356Z,3.53
2022-08-27T15:35:30.662Z,2.65
2022-08-27T15:38:03.273Z,2.25
2022-08-27T15:40:35.608Z,2.55
2022-08-27T15:43:07.261Z,2.72
2022-08-27T15:45:36.911Z,2.42
2022-08-27T15:55:51.963Z,2.03
2022-08-27T15:58:21.343Z,2.15
2022-08-27T16:00:48.934Z,2.45
2022-08-27T16:03:35.604Z,1.92
2022-08-27T16:06:05.258Z,1.35
2022-08-27T16:08:36.854Z,1.40
2022-08-27T16:11:10.960Z,1.63
2022-08-27T16:18:27.157Z,1.67
2022-08-27T16:20:56.299Z,1.80
2022-08-27T16:23:26.025Z,1.60
2022-08-27T16:25:54.787Z,1.60
2022-08-27T16:28:24.119Z,1.50
2022-08-27T16:30:54.422Z,1.70
2022-08-27T16:33:23.766Z,1.52
2022-08-27T16:44:02.638Z,2.10
2022-08-27T16:46:31.041Z,1.70
2022-08-27T16:49:16.593Z,1.80
2022-08-27T16:51:44.883Z,1.98
2022-08-27T16:54:16.600Z,1.75
2022-08-27T16:56:46.336Z,1.83
2022-08-27T16:59:15.718Z,1.58
2022-08-27T17:01:45.940Z,1.98
2022-08-27T17:07:44.073Z,2.60
2022-08-27T17:10:18.513Z,1.90
2022-08-27T17:12:48.446Z,2.30
2022-08-27T17:15:18.088Z,1.92
2022-08-27T17:17:45.974Z,1.73
2022-08-27T17:20:15.436Z,2.03
2022-08-27T17:22:43.552Z,1.90
2022-08-27T17:28:45.256Z,1.52
2022-08-27T17:31:28.201Z,1.65
2022-08-27T17:33:59.401Z,1.50
2022-08-27T17:36:32.248Z,1.30
2022-08-27T17:39:03.509Z,1.30
2022-08-27T17:41:41.201Z,1.70
2022-08-27T17:44:27.514Z,2.05
2022-08-27T17:52:11.339Z,1.20
2022-08-27T17:54:52.286Z,1.20
2022-08-27T17:57:41.131Z,1.30
2022-08-27T18:00:13.121Z,1.40
2022-08-27T18:02:48.638Z,1.30
2022-08-27T18:05:26.308Z,1.52
2022-08-27T18:07:56.398Z,2.00
2022-08-27T18:15:06.769Z,1.20
2022-08-27T18:17:36.447Z,1.50
2022-08-27T18:20:11.346Z,1.52
2022-08-27T18:22:48.336Z,1.80
2022-08-27T18:25:27.372Z,1.65
2022-08-27T18:28:02.871Z,1.63
2022-08-27T18:30:32.113Z,1.50
2022-08-27T18:36:43.667Z,1.60
2022-08-27T18:39:12.321Z,1.40
2022-08-27T18:41:44.232Z,1.58
2022-08-27T18:44:17.619Z,1.58
2022-08-27T18:46:46.512Z,1.40
2022-08-27T18:49:14.226Z,1.60
2022-08-27T18:52:10.114Z,1.20
2022-08-27T20:08:19.386Z,1.50
2022-08-27T20:10:51.179Z,1.20
2022-08-27T20:13:19.675Z,0.98
2022-08-27T20:15:48.585Z,1.20
2022-08-27T20:18:21.369Z,1.30
2022-08-27T20:20:48.897Z,1.17
2022-08-27T20:23:16.287Z,1.17
2022-08-27T20:29:04.112Z,1.00
2022-08-27T20:31:33.472Z,1.00
2022-08-27T20:34:04.073Z,1.30
2022-08-27T20:36:34.861Z,1.00
2022-08-27T20:39:04.622Z,1.25
2022-08-27T20:41:33.306Z,1.40
2022-08-27T20:44:02.885Z,1.30
2022-08-27T20:52:01.854Z,1.30
2022-08-27T20:54:22.738Z,1.15
2022-08-27T20:56:53.237Z,0.90
2022-08-27T20:59:42.181Z,1.05
2022-08-27T21:02:13.958Z,1.70
2022-08-27T21:04:47.879Z,1.40
2022-08-27T21:07:17.109Z,0.80
2022-08-27T21:13:17.695Z,1.27
2022-08-27T21:15:45.459Z,0.90
2022-08-27T21:18:13.773Z,1.20
2022-08-27T21:20:43.206Z,1.38
2022-08-27T21:23:12.513Z,1.52
2022-08-27T21:25:42.538Z,1.10
2022-08-27T21:28:11.927Z,1.08
2022-08-27T21:33:21.952Z,1.10
2022-08-27T21:35:49.553Z,1.45
2022-08-27T21:38:18.838Z,1.17
2022-08-27T21:40:48.096Z,1.23
2022-08-27T21:43:15.727Z,1.20
2022-08-27T21:45:43.870Z,1.27
2022-08-27T21:48:13.365Z,1.17
2022-08-27T21:50:43.539Z,1.20
2022-08-27T21:58:17.074Z,1.83
2022-08-27T22:00:47.592Z,1.80
2022-08-27T22:03:18.469Z,1.52
2022-08-27T22:05:46.796Z,1.58
2022-08-27T22:08:16.092Z,1.40
2022-08-27T22:10:46.509Z,1.55
2022-08-27T22:13:14.733Z,1.80
2022-08-27T22:23:32.724Z,1.65
2022-08-27T22:26:02.106Z,1.83
2022-08-27T22:28:29.474Z,1.40
2022-08-27T22:30:58.959Z,1.60
2022-08-27T22:33:26.587Z,1.20
2022-08-27T22:35:54.169Z,1.30
2022-08-27T22:38:23.494Z,1.40
2022-08-27T22:43:36.386Z,1.70
2022-08-27T22:46:03.943Z,1.40
2022-08-27T22:48:33.090Z,1.20
2022-08-27T22:51:02.504Z,1.00
2022-08-27T22:53:34.616Z,1.70
2022-08-27T22:56:05.706Z,1.23
2022-08-27T22:58:33.825Z,1.40
2022-08-27T23:03:56.737Z,1.10
2022-08-27T23:06:24.330Z,1.27
2022-08-27T23:08:53.525Z,1.10
2022-08-27T23:11:22.869Z,1.65
2022-08-27T23:13:52.864Z,1.50
2022-08-27T23:18:50.133Z,2.30
2022-08-27T23:29:07.514Z,1.58
2022-08-27T23:31:35.128Z,1.10
2022-08-27T23:34:04.541Z,1.40
2022-08-27T23:36:34.626Z,1.30
2022-08-27T23:39:03.739Z,1.67
2022-08-27T23:41:33.275Z,1.33
2022-08-27T23:44:02.681Z,1.23
2022-08-27T23:50:05.539Z,1.20
2022-08-27T23:52:34.255Z,1.40
2022-08-27T23:55:07.445Z,1.42
2022-08-27T23:57:35.346Z,1.40
